Погода Грацна 2 недели

Штирия, Австрия

23 июля-05 августа
  • 23июля
    Сегодня
    +15°
    +28°
    Облачно с прояснениями, небольшой дождь
    ВремяПогодаТемператураВлажностьДавлениеВетер, м/сВероятность осадков
    02:00Ясно и безоблачно+19°C92 %717 мм2.1 м/с11 %
    05:00Небольшая облачность+18°C91 %717 мм2.3 м/с8 %
    08:00Практически безоблачно+21°C76 %718 мм0.9 м/с9 %
    11:00Практически безоблачно+25°C55 %718 мм1.4 м/с9 %
    14:00Облачно с прояснениями, небольшой дождь+27°C51 %717 мм1.6 м/с25 %
    17:00Облачно с прояснениями+25°C72 %717 мм2.0 м/с44 %
    20:00Небольшая облачность+23°C82 %717 мм0.9 м/с18 %
    23:00Практически безоблачно+20°C91 %716 мм1.8 м/с2 %
  • 24июля
    Среда
    +14°
    +27°
    Облачно с прояснениями
    ВремяПогодаТемператураВлажностьДавлениеВетер, м/сВероятность осадков
    02:00Облачно с прояснениями+18°C90 %716 мм2.0 м/с9 %
    05:00Небольшая облачность+16°C95 %715 мм2.1 м/с12 %
    08:00Небольшая облачность+19°C81 %716 мм1.1 м/с23 %
    11:00Облачно с прояснениями+22°C64 %716 мм1.1 м/с38 %
    14:00Облачно с прояснениями+26°C46 %716 мм2.5 м/с37 %
    17:00Практически безоблачно+26°C38 %715 мм3.5 м/с12 %
    20:00Ясно и безоблачно+22°C58 %715 мм2.1 м/с5 %
    23:00Ясно и безоблачно+17°C76 %715 мм2.3 м/с2 %
  • 25июля
    Четверг
    +12°
    +26°
    Небольшая облачность
    ВремяПогодаТемператураВлажностьДавлениеВетер, м/сВероятность осадков
    02:00Ясно и безоблачно+16°C77 %715 мм2.3 м/с2 %
    05:00Ясно и безоблачно+15°C82 %715 мм2.3 м/с2 %
    08:00Практически безоблачно+18°C69 %715 мм0.9 м/с2 %
    11:00Практически безоблачно+22°C47 %716 мм2.6 м/с24 %
    14:00Небольшая облачность+25°C34 %715 мм1.9 м/с17 %
    17:00Практически безоблачно+25°C36 %714 мм2.8 м/с4 %
    20:00Практически безоблачно+22°C58 %714 мм0.9 м/с2 %
    23:00Небольшая облачность+18°C66 %715 мм0.8 м/с2 %
  • 26июля
    Пятница
    +15°
    +27°
    Ясно и безоблачно
    ВремяПогодаТемператураВлажностьДавлениеВетер, м/сВероятность осадков
    02:00Небольшая облачность+15°C79 %714 мм1.3 м/с2 %
    05:00Практически безоблачно+13°C84 %713 мм1.0 м/с2 %
    08:00Ясно и безоблачно+17°C64 %715 мм0.5 м/с2 %
    11:00Практически безоблачно+22°C52 %715 мм1.9 м/с2 %
    14:00Ясно и безоблачно+25°C50 %715 мм2.5 м/с2 %
    17:00Ясно и безоблачно+27°C48 %715 мм2.5 м/с4 %
    20:00Ясно и безоблачно+24°C63 %715 мм0.6 м/с2 %
    23:00Ясно и безоблачно+19°C72 %715 мм0.8 м/с2 %
  • 27июля
    Суббота
    +16°
    +30°
    Ясно и безоблачно
    ВремяПогодаТемператураВлажностьДавлениеВетер, м/сВероятность осадков
    02:00Ясно и безоблачно+17°C87 %715 мм1.1 м/с2 %
    05:00Ясно и безоблачно+15°C91 %715 мм1.3 м/с2 %
    08:00Ясно и безоблачно+20°C69 %716 мм0.3 м/с2 %
    11:00Ясно и безоблачно+25°C56 %717 мм1.8 м/с2 %
    14:00Ясно и безоблачно+28°C53 %717 мм2.8 м/с7 %
    17:00Ясно и безоблачно+30°C46 %717 мм2.9 м/с12 %
    20:00Ясно и безоблачно+26°C68 %717 мм1.0 м/с3 %
    23:00Ясно и безоблачно+21°C76 %717 мм0.9 м/с2 %
Мы используем cookies
Соглашаюсь